Time;durP1;ratioP1;P1;durP2;ratioP2;P2;SDS_P1;SDS_P2;PMS_P1;PMS_P2;Temp;Humidity;BMP_temperature;BMP_pressure;BME280_temperature;BME280_humidity;BME280_pressure;Samples;Min_cycle;Max_cycle;Signal;HPM_P1;HPM_P2
2023/07/26 00:00:23;;;;;;;18.63;9.35;;;;;;;-145.69;97.58;52129.50;5094094;28;20549;-83
2023/07/26 00:02:49;;;;;;;23.57;10.20;;;;;;;-145.69;97.57;52175.06;5094304;28;20217;-82
2023/07/26 00:05:16;;;;;;;23.27;10.68;;;;;;;-145.69;97.78;52175.06;5093961;28;20224;-82
2023/07/26 00:07:44;;;;;;;27.08;12.63;;;;;;;-145.69;97.13;52153.28;5094075;28;20289;-82
2023/07/26 00:10:10;;;;;;;23.73;12.50;;;;;;;-145.69;97.25;52163.19;5094062;28;20205;-83
2023/07/26 00:12:37;;;;;;;35.78;17.33;;;;;;;-145.69;100.00;52155.25;5092892;28;20791;-82
2023/07/26 00:15:04;;;;;;;29.92;14.10;;;;;;;-145.69;98.55;52167.13;5093597;28;20230;-83
2023/07/26 00:17:33;;;;;;;29.30;14.05;;;;;;;-145.69;97.11;52167.13;5093928;28;20198;-83
2023/07/26 00:20:00;;;;;;;28.48;12.70;;;;;;;-145.69;97.38;52179.03;5093463;28;20625;-83
2023/07/26 00:22:26;;;;;;;34.40;13.73;;;;;;;-145.69;97.44;52155.25;5093835;28;20622;-83
2023/07/26 00:24:59;;;;;;;28.02;13.55;;;;;;;-145.69;96.87;52163.19;5094006;28;20259;-82
2023/07/26 00:27:25;;;;;;;30.33;12.57;;;;;;;-145.69;97.44;52163.19;5093793;28;20194;-82
2023/07/26 00:29:52;;;;;;;22.80;11.77;;;;;;;-145.69;96.30;52149.31;5093577;28;20229;-83
2023/07/26 00:32:19;;;;;;;34.55;14.90;;;;;;;-145.69;96.33;52147.34;5093746;28;20209;-84
2023/07/26 00:34:45;;;;;;;26.33;13.30;;;;;;;-145.69;95.74;52111.69;5093937;28;20203;-82
2023/07/26 00:37:12;;;;;;;37.33;14.43;;;;;;;-145.69;95.13;52151.28;5093699;28;20604;-82
2023/07/26 00:39:38;;;;;;;29.10;14.25;;;;;;;-145.69;96.24;52163.19;5093386;28;20198;-83
2023/07/26 00:42:06;;;;;;;29.02;14.35;;;;;;;-145.69;95.51;52181.00;5093333;28;20206;-82
2023/07/26 00:44:33;;;;;;;29.52;14.45;;;;;;;-145.69;95.65;52167.13;5093561;28;20205;-82
2023/07/26 00:47:00;;;;;;;24.75;14.27;;;;;;;-145.69;96.75;52143.38;5093070;28;20715;-82
2023/07/26 00:49:27;;;;;;;34.72;14.35;;;;;;;-145.69;96.13;52169.13;5093176;28;20233;-83
2023/07/26 00:51:54;;;;;;;25.55;14.70;;;;;;;-145.69;96.67;52182.97;5093376;28;20208;-81
2023/07/26 00:54:22;;;;;;;28.85;13.93;;;;;;;-145.69;96.36;52161.19;5093487;28;20231;-82
2023/07/26 00:56:51;;;;;;;26.27;13.80;;;;;;;-145.69;95.81;52165.16;5092800;28;20209;-82
2023/07/26 00:59:19;;;;;;;31.07;14.73;;;;;;;-145.69;97.12;52145.34;5083581;28;20198;-81
2023/07/26 01:01:45;;;;;;;37.38;15.45;;;;;;;-145.69;96.97;52181.00;5093056;28;20225;-82
2023/07/26 01:04:12;;;;;;;33.28;15.02;;;;;;;-145.69;96.50;52151.28;5092706;28;20232;-81
2023/07/26 01:06:45;;;;;;;27.60;13.80;;;;;;;-145.69;96.00;52131.50;5093290;28;20295;-87
2023/07/26 01:09:20;;;;;;;27.83;15.20;;;;;;;-145.69;96.43;52163.19;5092980;28;20579;-81
2023/07/26 01:11:55;;;;;;;25.97;13.47;;;;;;;-145.69;96.07;52159.22;5093176;28;20202;-81
2023/07/26 01:14:32;;;;;;;32.00;14.93;;;;;;;-145.69;95.04;52153.28;5092830;28;20232;-81
2023/07/26 01:17:02;;;;;;;32.33;13.15;;;;;;;-145.69;95.85;52167.13;5092477;28;20204;-83
2023/07/26 01:19:28;;;;;;;27.37;13.50;;;;;;;-145.69;95.55;52165.16;5093074;28;20194;-81
2023/07/26 01:21:56;;;;;;;32.20;14.60;;;;;;;-145.69;96.00;52169.13;5072926;28;20543;-81
2023/07/26 01:24:23;;;;;;;32.67;14.47;;;;;;;-145.69;96.38;52196.84;5072660;28;20210;-81
2023/07/26 01:26:49;;;;;;;34.03;14.80;;;;;;;-145.69;95.61;52175.06;5086017;28;20198;-81
2023/07/26 01:29:16;;;;;;;29.40;15.37;;;;;;;-145.69;96.62;52137.44;5092361;28;20700;-82
2023/07/26 01:31:42;;;;;;;38.63;13.60;;;;;;;-145.69;97.44;52190.91;5092979;28;20205;-83
2023/07/26 01:34:10;;;;;;;32.23;15.47;;;;;;;-145.69;97.16;52159.22;5092710;28;20190;-81
2023/07/26 01:36:41;;;;;;;41.73;16.33;;;;;;;-145.69;96.94;52179.03;5092506;28;20281;-81
2023/07/26 01:39:09;;;;;;;42.03;16.07;;;;;;;-145.69;97.13;52143.38;5092618;28;20220;-81
2023/07/26 01:41:36;;;;;;;39.50;14.90;;;;;;;-145.69;95.94;52159.22;5092951;28;20198;-84
2023/07/26 01:44:03;;;;;;;29.33;14.33;;;;;;;-145.69;97.34;52179.03;5092277;28;20209;-82
2023/07/26 01:46:30;;;;;;;37.27;13.93;;;;;;;-145.69;97.42;52175.06;5092924;28;20194;-82
2023/07/26 01:48:56;;;;;;;25.33;13.70;;;;;;;-145.69;96.12;52181.00;5092691;28;20550;-82
2023/07/26 01:51:23;;;;;;;33.47;15.70;;;;;;;-145.69;95.63;52171.09;5092406;28;20194;-82
2023/07/26 01:53:49;;;;;;;29.20;14.70;;;;;;;-145.69;95.85;52190.91;5092151;28;20202;-82
2023/07/26 01:56:17;;;;;;;32.05;13.75;;;;;;;-145.69;95.39;52179.03;5092832;28;20209;-80
2023/07/26 01:58:43;;;;;;;36.23;14.07;;;;;;;-145.69;95.67;52198.81;5093003;28;20201;-82
2023/07/26 02:01:10;;;;;;;25.45;11.50;;;;;;;-145.69;95.47;52167.13;5092152;28;20198;-81
2023/07/26 02:03:37;;;;;;;33.43;12.57;;;;;;;-145.69;95.22;52171.09;5092590;28;20202;-82
2023/07/26 02:06:03;;;;;;;22.57;12.60;;;;;;;-145.69;94.95;52163.19;5093081;28;20209;-83
2023/07/26 02:08:30;;;;;;;28.80;12.07;;;;;;;-145.69;96.36;52175.06;5092683;28;20206;-81
2023/07/26 02:10:56;;;;;;;22.43;11.33;;;;;;;-145.69;96.26;52167.13;5092375;28;20198;-81
2023/07/26 02:13:27;;;;;;;22.80;11.77;;;;;;;-145.69;96.67;52143.38;5092253;28;20556;-82
2023/07/26 02:15:53;;;;;;;17.97;10.73;;;;;;;-145.69;96.69;52163.19;5094312;28;20202;-82
2023/07/26 02:18:20;;;;;;;26.00;12.63;;;;;;;-145.69;95.90;52165.16;5096005;28;20205;-81
2023/07/26 02:20:46;;;;;;;37.00;12.57;;;;;;;-145.69;95.28;52167.13;5095935;28;20205;-81
2023/07/26 02:23:13;;;;;;;24.90;12.10;;;;;;;-145.69;95.57;52173.09;5096435;28;20255;-82
2023/07/26 02:25:39;;;;;;;25.60;12.77;;;;;;;-145.69;94.88;52194.88;5096146;28;20202;-81
2023/07/26 02:28:06;;;;;;;21.83;12.17;;;;;;;-145.69;95.55;52151.28;5095735;28;20198;-82
2023/07/26 02:30:34;;;;;;;20.57;12.10;;;;;;;-145.69;95.59;52151.28;5095590;28;20225;-82
2023/07/26 02:33:00;;;;;;;31.47;13.47;;;;;;;-145.69;95.30;52171.09;5095814;28;20202;-81
2023/07/26 02:35:29;;;;;;;27.47;12.77;;;;;;;-145.69;94.27;52171.09;5095611;28;20209;-81
2023/07/26 02:37:56;;;;;;;26.27;12.50;;;;;;;-145.69;95.15;52184.97;5095993;28;20198;-81
2023/07/26 02:40:22;;;;;;;31.13;13.37;;;;;;;-145.69;95.13;52161.19;5095661;28;20281;-81
2023/07/26 02:42:49;;;;;;;24.70;13.03;;;;;;;-145.69;93.43;52194.88;5096061;28;20198;-82
2023/07/26 02:45:15;;;;;;;30.47;12.60;;;;;;;-145.69;90.98;52149.31;5095748;28;20233;-83
2023/07/26 02:47:43;;;;;;;29.33;12.17;;;;;;;-145.69;94.40;52175.06;5095518;28;20293;-82
2023/07/26 02:50:10;;;;;;;32.70;13.60;;;;;;;-145.69;93.74;52184.97;5095393;28;20261;-81
2023/07/26 02:52:36;;;;;;;26.33;11.77;;;;;;;-145.69;92.28;52163.19;5095940;28;20250;-82
2023/07/26 02:55:03;;;;;;;29.40;12.77;;;;;;;-145.69;93.51;52159.22;5095420;28;20209;-82
2023/07/26 02:57:30;;;;;;;30.53;13.27;;;;;;;-145.69;94.13;52177.03;5095507;28;20698;-81
2023/07/26 02:59:56;;;;;;;29.47;12.23;;;;;;;-145.69;93.46;52167.13;5095306;28;20190;-81
2023/07/26 03:02:23;;;;;;;20.70;12.20;;;;;;;-145.69;94.47;52157.25;5095203;28;20198;-82
2023/07/26 03:04:51;;;;;;;26.50;11.53;;;;;;;-145.69;94.98;52163.19;5095129;28;20198;-81
2023/07/26 03:07:18;;;;;;;21.03;11.57;;;;;;;-145.69;94.64;52139.41;5094971;28;20275;-83
2023/07/26 03:09:44;;;;;;;20.80;11.37;;;;;;;-145.69;94.91;52181.00;5095383;28;20230;-82
2023/07/26 03:12:11;;;;;;;26.80;12.77;;;;;;;-145.69;95.39;52171.09;5094991;28;20199;-81
2023/07/26 03:14:40;;;;;;;24.60;11.83;;;;;;;-145.69;95.27;52167.13;5094713;28;20233;-82
2023/07/26 03:17:09;;;;;;;26.70;12.27;;;;;;;-145.69;95.20;52194.88;5094760;28;20293;-81
2023/07/26 03:19:36;;;;;;;24.60;11.70;;;;;;;-145.69;94.38;52173.09;5095099;28;20198;-83
2023/07/26 03:22:04;;;;;;;26.80;12.07;;;;;;;-145.69;95.17;52167.13;5094980;28;20225;-80
2023/07/26 03:24:30;;;;;;;30.47;13.10;;;;;;;-145.69;95.37;52171.09;5095086;28;20198;-82
2023/07/26 03:26:57;;;;;;;23.67;11.93;;;;;;;-145.69;93.57;52179.03;5094024;28;20676;-82
2023/07/26 03:29:24;;;;;;;23.33;11.65;;;;;;;-145.69;95.69;52139.41;5091469;28;20407;-82
2023/07/26 03:31:50;;;;;;;21.43;12.10;;;;;;;-145.69;95.50;52202.78;5094794;28;20204;-81
2023/07/26 03:34:17;;;;;;;26.90;13.10;;;;;;;-145.69;94.70;52190.91;5095077;28;20208;-83
2023/07/26 03:36:43;;;;;;;18.20;10.90;;;;;;;-145.69;95.28;52163.19;5094107;28;20194;-82
2023/07/26 03:39:11;;;;;;;28.57;12.20;;;;;;;-145.69;94.97;52155.25;5094835;28;20305;-81
2023/07/26 03:41:37;;;;;;;27.97;12.20;;;;;;;-145.69;94.94;52190.91;5094206;28;20201;-82
2023/07/26 03:44:04;;;;;;;22.93;12.00;;;;;;;-145.69;94.59;52206.75;5094346;28;20202;-82
2023/07/26 03:46:31;;;;;;;21.90;11.53;;;;;;;-145.69;95.06;52163.19;5094471;28;20201;-82
2023/07/26 03:48:57;;;;;;;24.90;11.20;;;;;;;-145.69;95.08;52177.03;5094404;28;20198;-82
2023/07/26 03:51:24;;;;;;;26.30;11.90;;;;;;;-145.69;94.97;52198.81;5094384;28;20669;-82
2023/07/26 03:53:50;;;;;;;22.97;11.27;;;;;;;-145.69;95.08;52179.03;5094184;28;20217;-81
2023/07/26 03:56:18;;;;;;;24.73;12.27;;;;;;;-145.69;94.94;52163.19;5094296;28;20631;-82
2023/07/26 03:58:45;;;;;;;28.30;12.63;;;;;;;-145.69;94.04;52179.03;5094108;28;20189;-82
2023/07/26 04:01:11;;;;;;;20.48;11.63;;;;;;;-145.69;94.17;52159.22;5094540;28;20206;-81
2023/07/26 04:03:38;;;;;;;23.07;11.13;;;;;;;-145.69;94.83;52171.09;5094400;28;20197;-82
2023/07/26 04:06:04;;;;;;;19.50;11.53;;;;;;;-145.69;93.19;52151.28;5094057;28;20206;-81
2023/07/26 04:08:34;;;;;;;21.60;10.47;;;;;;;-145.69;94.63;52179.03;5093933;28;20198;-81
2023/07/26 04:11:03;;;;;;;25.58;11.10;;;;;;;-145.69;93.46;52188.91;5093671;28;20228;-80
2023/07/26 04:13:31;;;;;;;23.73;10.73;;;;;;;-145.69;94.36;52169.13;5093571;28;20210;-82
2023/07/26 04:15:57;;;;;;;20.67;11.87;;;;;;;-145.69;94.20;52167.13;5094025;28;20683;-83
2023/07/26 04:18:24;;;;;;;29.67;10.68;;;;;;;-145.69;91.49;52167.13;5093713;28;20281;-82
2023/07/26 04:20:50;;;;;;;20.33;10.97;;;;;;;-145.69;94.42;52208.72;5093544;28;20718;-82
2023/07/26 04:23:17;;;;;;;21.77;10.17;;;;;;;-145.69;94.50;52163.19;5093913;28;20205;-82
2023/07/26 04:25:49;;;;;;;25.25;10.98;;;;;;;-145.69;93.40;52163.19;5093806;28;20259;-81
2023/07/26 04:28:16;;;;;;;24.23;10.27;;;;;;;-145.69;94.26;52184.97;5093696;28;20204;-82
2023/07/26 04:30:47;;;;;;;20.33;11.60;;;;;;;-145.69;94.57;52179.03;5093560;28;20716;-82
2023/07/26 04:33:13;;;;;;;20.97;10.67;;;;;;;-145.69;93.92;52181.00;5093535;28;20279;-82
2023/07/26 04:35:40;;;;;;;27.90;11.80;;;;;;;-145.69;94.13;52190.91;5093727;28;20560;-82
2023/07/26 04:38:06;;;;;;;20.83;11.32;;;;;;;-145.69;94.60;52175.06;5092241;28;20197;-83
2023/07/26 04:40:33;;;;;;;21.40;10.77;;;;;;;-145.69;94.68;52169.13;5093593;28;20206;-82
2023/07/26 04:42:59;;;;;;;23.67;10.48;;;;;;;-145.69;95.39;52153.28;5093643;28;20204;-82
2023/07/26 04:45:26;;;;;;;22.73;11.18;;;;;;;-145.69;92.71;52198.81;5093778;28;20297;-82
2023/07/26 04:47:54;;;;;;;18.92;10.70;;;;;;;-145.69;94.76;52167.13;5092883;28;20270;-82
2023/07/26 04:50:20;;;;;;;21.40;11.40;;;;;;;-145.69;94.60;52186.94;5093344;28;20229;-82
2023/07/26 04:52:47;;;;;;;23.23;11.45;;;;;;;-145.69;94.90;52192.88;5092939;28;20205;-82
2023/07/26 04:55:13;;;;;;;22.10;10.55;;;;;;;-145.69;94.92;52177.03;5093334;28;20204;-82
2023/07/26 04:57:40;;;;;;;22.63;11.40;;;;;;;-145.69;93.57;52212.69;5093048;28;20534;-82
2023/07/26 05:00:08;;;;;;;18.70;10.10;;;;;;;-145.69;95.68;52157.25;5093409;28;20213;-82
2023/07/26 05:02:36;;;;;;;17.05;10.15;;;;;;;-145.69;91.03;52169.13;5093188;28;20679;-82
2023/07/26 05:05:04;;;;;;;22.52;10.23;;;;;;;-145.69;93.89;52155.25;5093067;28;20214;-81
2023/07/26 05:07:30;;;;;;;23.15;10.75;;;;;;;-145.69;94.01;52167.13;5092653;28;20198;-82
2023/07/26 05:09:57;;;;;;;18.10;8.73;;;;;;;-145.69;94.42;52198.81;5093290;28;20229;-82
2023/07/26 05:12:24;;;;;;;14.02;8.95;;;;;;;-145.69;94.86;52157.25;5093198;28;20202;-82
2023/07/26 05:14:50;;;;;;;18.05;9.43;;;;;;;-145.69;93.87;52163.19;5092619;28;20607;-82
2023/07/26 05:17:17;;;;;;;13.65;8.52;;;;;;;-145.69;94.01;52161.19;5092989;28;20198;-82
2023/07/26 05:19:44;;;;;;;17.98;8.23;;;;;;;-145.69;93.69;52181.00;5092372;28;20560;-82
2023/07/26 05:22:12;;;;;;;19.08;9.43;;;;;;;-145.69;92.59;52179.03;5074858;28;20214;-82
2023/07/26 05:24:38;;;;;;;17.90;8.98;;;;;;;-145.69;92.13;52179.03;5092161;28;20197;-82
2023/07/26 05:27:06;;;;;;;13.18;7.68;;;;;;;-145.69;94.18;52157.25;5092607;28;20208;-82
2023/07/26 05:29:32;;;;;;;16.00;8.65;;;;;;;-145.69;92.63;52155.25;5092901;28;20206;-82
2023/07/26 05:31:59;;;;;;;13.55;8.20;;;;;;;-145.69;93.63;52184.97;5092935;28;20198;-81
2023/07/26 05:34:26;;;;;;;17.48;9.20;;;;;;;-145.69;94.08;52167.13;5092291;28;20603;-82
2023/07/26 05:36:52;;;;;;;16.42;8.35;;;;;;;-145.69;93.18;52111.69;5093060;28;20293;-82
2023/07/26 05:39:20;;;;;;;17.13;9.05;;;;;;;-145.69;92.85;52163.19;5092651;28;20194;-82
2023/07/26 05:41:47;;;;;;;12.90;8.90;;;;;;;-145.69;94.09;52155.25;5092931;28;20201;-81
2023/07/26 05:44:13;;;;;;;13.50;8.50;;;;;;;-145.69;93.84;52159.22;5092011;28;20202;-82
2023/07/26 05:46:40;;;;;;;14.10;8.65;;;;;;;-145.69;93.91;52151.28;5093006;28;20198;-82
2023/07/26 05:49:09;;;;;;;20.45;8.68;;;;;;;-145.69;92.73;52179.03;5093174;28;20198;-82
2023/07/26 05:51:35;;;;;;;15.90;8.30;;;;;;;-145.69;93.49;52177.03;5096850;28;20252;-81
2023/07/26 05:54:02;;;;;;;15.27;8.55;;;;;;;-145.69;94.17;52143.38;5096620;28;20202;-82
2023/07/26 05:56:30;;;;;;;16.75;8.98;;;;;;;-145.69;89.39;52171.09;5096327;28;20284;-81
2023/07/26 05:58:56;;;;;;;11.57;7.50;;;;;;;-145.69;93.58;52157.25;5096880;28;20198;-82
2023/07/26 06:01:23;;;;;;;10.52;7.65;;;;;;;-145.69;93.89;52179.03;5096715;28;20283;-82
2023/07/26 06:03:50;;;;;;;18.08;8.27;;;;;;;-145.69;90.01;52153.28;5096553;28;20567;-81
2023/07/26 06:06:16;;;;;;;17.40;7.32;;;;;;;-145.69;91.94;52143.38;5096686;28;20202;-82
2023/07/26 06:08:43;;;;;;;13.15;7.65;;;;;;;-145.69;92.26;52135.47;5096874;28;20259;-81
2023/07/26 06:11:09;;;;;;;15.45;8.05;;;;;;;-145.69;87.29;52171.09;5096496;28;20692;-81
2023/07/26 06:13:37;;;;;;;11.90;8.02;;;;;;;-145.69;91.75;52125.56;5096249;28;20230;-82
2023/07/26 06:16:04;;;;;;;16.27;7.50;;;;;;;-145.69;89.68;52139.41;5096539;28;20678;-81
2023/07/26 06:18:31;;;;;;;11.50;7.32;;;;;;;-145.69;87.73;52127.53;5096310;28;20645;-82
2023/07/26 06:20:57;;;;;;;13.10;7.70;;;;;;;-145.69;84.81;52131.50;5096179;28;20201;-82
2023/07/26 06:23:24;;;;;;;16.17;7.55;;;;;;;-145.69;81.93;52095.84;5096000;28;20213;-81
2023/07/26 06:25:50;;;;;;;14.10;7.13;;;;;;;-145.69;85.97;52127.53;5096585;28;20663;-81
2023/07/26 06:28:17;;;;;;;11.10;6.65;;;;;;;-145.69;92.00;52135.47;5097171;28;20209;-82
2023/07/26 06:30:49;;;;;;;12.07;7.10;;;;;;;-145.69;90.67;52115.66;5096296;28;20214;-82
2023/07/26 06:33:15;;;;;;;12.75;7.15;;;;;;;-145.69;81.01;52159.22;5097081;28;20201;-83
2023/07/26 06:35:42;;;;;;;16.80;6.18;;;;;;;-145.69;91.98;52123.56;5100123;28;20541;-82
2023/07/26 06:38:09;;;;;;;11.80;6.47;;;;;;;-145.69;93.45;52115.66;5099816;28;20209;-83
2023/07/26 06:40:35;;;;;;;11.23;6.20;;;;;;;-145.69;91.12;52103.78;5097698;28;20949;-83
2023/07/26 06:43:05;;;;;;;24.48;6.18;;;;;;;-145.69;93.20;52135.47;5099629;28;20687;-83
2023/07/26 06:45:32;;;;;;;9.88;5.72;;;;;;;-145.69;91.65;52115.66;5099182;28;20591;-83
2023/07/26 06:48:00;;;;;;;10.98;5.20;;;;;;;-145.69;91.99;52103.78;5098387;28;20208;-83
2023/07/26 06:50:26;;;;;;;11.48;5.63;;;;;;;-145.69;92.19;52109.72;5098270;28;20218;-82
2023/07/26 06:52:53;;;;;;;14.82;6.10;;;;;;;-145.69;93.13;52115.66;5097327;28;20204;-84
2023/07/26 06:55:19;;;;;;;11.60;5.63;;;;;;;-145.69;88.75;52089.91;5096723;28;20208;-84
2023/07/26 06:57:46;;;;;;;9.70;4.55;;;;;;;-145.69;78.94;52091.88;5097246;28;20198;-83
2023/07/26 07:00:15;;;;;;;7.32;4.05;;;;;;;-145.69;91.67;52105.75;5095926;28;20481;-83
2023/07/26 07:02:42;;;;;;;8.30;4.68;;;;;;;-145.69;91.68;52087.94;5096655;28;20202;-83
2023/07/26 07:05:11;;;;;;;6.90;4.07;;;;;;;-145.69;84.48;52107.72;5097451;28;20202;-84
2023/07/26 07:07:38;;;;;;;6.82;4.15;;;;;;;-145.69;83.64;52127.53;5096284;28;20206;-83
2023/07/26 07:10:05;;;;;;;9.25;3.88;;;;;;;-145.69;79.71;52121.59;5094754;28;20205;-82
2023/07/26 07:12:32;;;;;;;7.72;3.55;;;;;;;-145.69;86.60;52095.84;5095787;28;20294;-83
2023/07/26 07:14:58;;;;;;;8.20;3.85;;;;;;;-145.69;86.70;52115.66;5096424;28;20328;-83
2023/07/26 07:17:25;;;;;;;8.57;3.33;;;;;;;-145.69;90.36;52072.09;5095844;28;20296;-83
2023/07/26 07:19:52;;;;;;;5.20;3.20;;;;;;;-145.69;89.48;52074.06;5095794;28;20205;-83
2023/07/26 07:22:19;;;;;;;5.95;3.10;;;;;;;-145.69;85.81;52070.09;5098306;28;20257;-84
2023/07/26 07:24:46;;;;;;;10.82;3.05;;;;;;;-145.69;87.57;52095.84;5097554;28;20208;-84
2023/07/26 07:27:12;;;;;;;12.85;3.30;;;;;;;-145.69;78.85;52113.66;5096658;28;20194;-83
2023/07/26 07:29:39;;;;;;;9.85;3.00;;;;;;;-145.69;84.43;52082.00;5097145;28;20190;-83
2023/07/26 07:32:10;;;;;;;10.75;3.13;;;;;;;-145.69;84.80;52103.78;5092316;28;20230;-83
2023/07/26 07:34:36;;;;;;;4.05;2.80;;;;;;;-145.69;87.81;52109.72;5095188;28;20699;-83
2023/07/26 07:37:02;;;;;;;8.95;3.75;;;;;;;-145.69;84.98;52078.03;5094504;28;20209;-83
2023/07/26 07:39:30;;;;;;;4.65;3.08;;;;;;;-145.69;81.67;52111.69;5095519;28;20190;-84
2023/07/26 07:41:56;;;;;;;5.43;2.97;;;;;;;-145.69;76.91;52107.72;5097553;28;20210;-83
2023/07/26 07:44:23;;;;;;;10.30;3.00;;;;;;;-145.69;76.47;52123.56;5096563;28;20672;-83
2023/07/26 07:46:50;;;;;;;4.68;2.60;;;;;;;-145.69;80.59;52105.75;5096593;28;20549;-83
2023/07/26 07:49:16;;;;;;;4.75;2.35;;;;;;;-145.69;82.74;52103.78;5093642;28;20825;-83
2023/07/26 07:51:43;;;;;;;5.57;2.70;;;;;;;-145.69;84.65;52115.66;5094977;28;20233;-84
2023/07/26 07:54:12;;;;;;;5.40;2.58;;;;;;;-145.69;80.90;52087.94;5094455;28;20206;-84
2023/07/26 07:56:40;;;;;;;3.33;2.53;;;;;;;-145.69;86.73;52091.88;5094130;28;20664;-84
2023/07/26 07:59:06;;;;;;;5.47;2.80;;;;;;;-145.69;83.69;52064.16;5096172;28;20205;-83
2023/07/26 08:01:33;;;;;;;6.70;2.40;;;;;;;-145.69;81.40;52101.78;5096874;28;20656;-84
2023/07/26 08:04:00;;;;;;;3.28;2.28;;;;;;;-145.69;84.76;52115.66;5094849;28;20202;-84
2023/07/26 08:06:27;;;;;;;6.13;2.67;;;;;;;-145.69;84.18;52085.94;5095967;28;20269;-84
2023/07/26 08:08:54;;;;;;;4.47;2.33;;;;;;;-145.69;79.04;52111.69;5098098;28;20202;-83
2023/07/26 08:11:20;;;;;;;3.60;2.40;;;;;;;-145.69;81.20;52123.56;5094691;28;20316;-83
2023/07/26 08:13:50;;;;;;;4.88;2.42;;;;;;;-145.69;77.42;52107.72;5095984;28;20237;-84
2023/07/26 08:16:16;;;;;;;4.30;2.65;;;;;;;-145.69;82.33;52099.81;5094057;28;20197;-84
2023/07/26 08:18:43;;;;;;;7.15;2.97;;;;;;;-145.69;76.13;52123.56;5094915;28;20199;-83
2023/07/26 08:21:12;;;;;;;6.10;2.30;;;;;;;-145.69;79.27;52119.63;5094335;28;20217;-84
2023/07/26 08:23:41;;;;;;;6.00;2.53;;;;;;;-145.69;72.49;52103.78;5095441;28;20564;-84
2023/07/26 08:26:09;;;;;;;4.53;1.95;;;;;;;-145.69;78.97;52115.66;5094174;28;20219;-84
2023/07/26 08:28:38;;;;;;;6.72;2.33;;;;;;;-145.69;75.60;52093.88;5094516;28;20225;-84
2023/07/26 08:31:06;;;;;;;7.13;2.40;;;;;;;-145.69;78.92;52099.81;5094161;28;20225;-81
2023/07/26 08:33:33;;;;;;;3.78;2.05;;;;;;;-145.69;76.61;52078.03;5093789;28;20197;-81
2023/07/26 08:36:02;;;;;;;4.85;1.90;;;;;;;-145.69;75.61;52060.22;5093148;28;20205;-82
2023/07/26 08:38:30;;;;;;;6.30;2.78;;;;;;;-145.69;65.88;52044.38;5093540;28;20197;-81
2023/07/26 08:40:57;;;;;;;5.10;1.70;;;;;;;-145.69;70.14;52103.78;5093940;28;20198;-83
2023/07/26 08:43:24;;;;;;;3.55;1.55;;;;;;;-145.69;71.69;52087.94;5094512;28;20198;-84
2023/07/26 08:45:51;;;;;;;4.63;1.67;;;;;;;-145.69;69.32;52091.88;5094496;28;20201;-84
2023/07/26 08:48:19;;;;;;;6.13;1.80;;;;;;;-145.69;62.60;52056.25;5094275;28;20527;-84
2023/07/26 08:50:46;;;;;;;1.58;1.40;;;;;;;-145.69;63.84;52076.03;5095104;28;20248;-83
2023/07/26 08:53:14;;;;;;;3.22;1.35;;;;;;;-145.69;60.94;52054.25;5095468;28;20205;-85
2023/07/26 08:55:41;;;;;;;1.38;1.20;;;;;;;-145.69;61.42;52076.03;5093646;28;20653;-84
2023/07/26 08:58:07;;;;;;;4.05;1.20;;;;;;;-145.69;57.70;52074.06;5089800;28;20199;-87
2023/07/26 09:00:34;;;;;;;3.53;1.00;;;;;;;-145.69;52.64;52089.91;5093277;28;20198;-84
2023/07/26 09:03:03;;;;;;;3.50;1.00;;;;;;;-145.69;53.70;52085.94;5093177;28;20198;-86
2023/07/26 09:05:30;;;;;;;2.28;0.90;;;;;;;-145.69;56.39;52056.25;5093416;28;20194;-83
2023/07/26 09:07:57;;;;;;;2.30;0.90;;;;;;;-145.69;55.11;52082.00;5093528;28;20201;-84
2023/07/26 09:10:24;;;;;;;3.25;1.17;;;;;;;-145.69;56.35;52068.13;5093496;28;20198;-85
2023/07/26 09:12:51;;;;;;;1.55;1.13;;;;;;;-145.69;54.96;52068.13;5093907;28;20276;-85
2023/07/26 09:15:19;;;;;;;2.72;1.10;;;;;;;-145.69;52.29;52034.47;5093285;28;20226;-86
2023/07/26 09:17:45;;;;;;;4.30;1.13;;;;;;;-145.69;52.97;52060.22;5092638;28;20210;-86
2023/07/26 09:20:20;;;;;;;1.85;1.00;;;;;;;-145.69;51.65;52050.31;5093477;28;20198;-85
2023/07/26 09:22:53;;;;;;;2.45;1.35;;;;;;;-145.69;49.86;52068.13;5093413;28;20194;-85
2023/07/26 09:25:31;;;;;;;4.05;1.40;;;;;;;-145.69;49.51;52044.38;5092867;28;20251;-85
2023/07/26 09:27:58;;;;;;;4.20;1.10;;;;;;;-145.69;50.71;52056.25;5092398;28;20955;-86
2023/07/26 09:30:25;;;;;;;2.72;1.20;;;;;;;-145.69;48.79;52034.47;5081808;28;20202;-85
2023/07/26 09:32:52;;;;;;;7.00;1.20;;;;;;;-145.69;49.63;52070.09;5072730;28;20713;-84
2023/07/26 09:35:19;;;;;;;5.63;1.30;;;;;;;-145.69;48.19;52082.00;5082631;28;20209;-86
2023/07/26 09:37:45;;;;;;;4.13;1.35;;;;;;;-145.69;48.97;52060.22;5092728;28;20202;-85
2023/07/26 09:40:31;;;;;;;2.17;0.90;;;;;;;-145.69;47.42;52032.47;5092992;28;20202;-87
2023/07/26 09:42:57;;;;;;;2.97;1.10;;;;;;;-145.69;47.71;52064.16;5093021;28;20201;-86
2023/07/26 09:45:25;;;;;;;4.85;1.23;;;;;;;-145.69;48.32;52062.19;5092825;28;20779;-85
2023/07/26 09:47:52;;;;;;;1.30;1.10;;;;;;;-145.69;48.60;52042.38;5093188;28;20285;-85
2023/07/26 09:50:25;;;;;;;1.33;0.95;;;;;;;-145.69;47.44;52064.16;5093249;28;20206;-86
2023/07/26 09:52:54;;;;;;;2.22;1.10;;;;;;;-145.69;47.02;52030.50;5092545;28;20312;-85
2023/07/26 09:55:23;;;;;;;2.35;0.98;;;;;;;-145.69;46.08;52054.25;5092823;28;20218;-85
2023/07/26 09:57:52;;;;;;;4.13;0.88;;;;;;;-145.69;46.60;52022.59;5092702;28;20271;-84
2023/07/26 10:00:19;;;;;;;3.20;0.98;;;;;;;-145.69;47.65;52012.69;5092682;28;20202;-85
2023/07/26 10:02:46;;;;;;;2.47;0.82;;;;;;;-145.69;43.69;52016.66;5092766;28;20201;-83
2023/07/26 10:05:16;;;;;;;1.20;0.90;;;;;;;-145.69;43.08;52040.41;5092392;28;20198;-84
2023/07/26 10:07:46;;;;;;;2.83;0.85;;;;;;;-145.69;44.35;52020.59;5092661;28;20232;-85
2023/07/26 10:10:16;;;;;;;1.50;0.88;;;;;;;-145.69;47.26;52044.38;5093068;28;20198;-85
2023/07/26 10:12:45;;;;;;;18.23;1.52;;;;;;;-145.69;51.80;52052.28;5097004;28;20283;-84
2023/07/26 10:15:13;;;;;;;2.30;1.40;;;;;;;-145.69;62.13;52060.22;5093337;28;20226;-84
2023/07/26 10:17:40;;;;;;;2.10;1.27;;;;;;;-145.69;67.07;52093.88;5095019;28;20198;-82
2023/07/26 10:20:09;;;;;;;2.47;1.38;;;;;;;-145.69;62.99;52083.97;5094821;28;20204;-84
2023/07/26 10:22:37;;;;;;;5.00;1.55;;;;;;;-145.69;66.15;52064.16;5096381;28;20198;-82
2023/07/26 10:25:04;;;;;;;3.90;1.20;;;;;;;-145.69;63.65;52078.03;5099744;28;20204;-83
2023/07/26 10:27:31;;;;;;;3.80;1.25;;;;;;;-145.69;59.61;52048.31;5099108;28;20202;-83
2023/07/26 10:29:58;;;;;;;1.77;1.10;;;;;;;-145.69;61.56;52040.41;5100441;28;20194;-83
2023/07/26 10:32:25;;;;;;;4.97;1.05;;;;;;;-145.69;60.97;52046.34;5098521;28;20222;-82
2023/07/26 10:34:55;;;;;;;1.42;0.95;;;;;;;-145.69;59.78;52020.59;5100350;28;20201;-84
2023/07/26 10:37:23;;;;;;;2.65;1.23;;;;;;;-145.69;50.26;52018.63;5098554;28;20225;-85
2023/07/26 10:39:50;;;;;;;2.70;0.80;;;;;;;-145.69;49.53;52032.47;5098452;28;20198;-85
2023/07/26 10:42:24;;;;;;;2.75;0.93;;;;;;;-145.69;49.11;52022.59;5097759;28;20198;-84
2023/07/26 10:44:51;;;;;;;6.38;1.35;;;;;;;-145.69;49.23;52044.38;5095836;28;20205;-83
2023/07/26 10:47:19;;;;;;;2.97;1.10;;;;;;;-145.69;51.35;52042.38;5098311;28;20202;-83
2023/07/26 10:49:46;;;;;;;1.95;1.15;;;;;;;-145.69;48.54;52042.38;5097934;28;20202;-86
2023/07/26 10:52:14;;;;;;;5.40;1.40;;;;;;;-145.69;50.72;52072.09;5095106;28;20887;-84
2023/07/26 10:54:42;;;;;;;18.27;2.85;;;;;;;-145.69;100.00;52097.84;5096867;28;20201;-86
2023/07/26 10:57:15;;;;;;;5.18;1.77;;;;;;;-145.69;100.00;52099.81;5096946;28;20206;-84
2023/07/26 10:59:55;;;;;;;14.82;1.73;;;;;;;-145.69;100.00;52115.66;5098611;28;20202;-85
2023/07/26 11:02:43;;;;;;;3.60;2.00;;;;;;;-145.69;92.39;52155.25;5098012;28;20201;-83
2023/07/26 11:05:15;;;;;;;2.78;1.98;;;;;;;-145.69;90.65;52163.19;5096341;28;20285;-86
2023/07/26 11:07:52;;;;;;;2.03;1.40;;;;;;;-145.69;90.21;52159.22;5095188;28;20281;-83
2023/07/26 11:10:21;;;;;;;3.75;1.63;;;;;;;-145.69;92.67;52182.97;5095685;28;20201;-86